Time;durP1;ratioP1;P1;durP2;ratioP2;P2;SDS_P1;SDS_P2;PMS_P1;PMS_P2;Temp;Humidity;BMP_temperature;BMP_pressure;BME280_temperature;BME280_humidity;BME280_pressure;Samples;Min_cycle;Max_cycle;Signal;HPM_P1;HPM_P2
2023/01/21 00:01:52;;;;;;;33.23;17.83;;;-0.80;99.90;;;;;;5050023;28;20068;-83
2023/01/21 00:04:18;;;;;;;39.03;17.93;;;-0.80;99.90;;;;;;5050045;28;20465;-83
2023/01/21 00:06:44;;;;;;;37.57;19.07;;;-0.90;99.90;;;;;;5049544;28;20036;-83
2023/01/21 00:09:10;;;;;;;38.97;19.63;;;-0.90;99.90;;;;;;5049762;28;20120;-83
2023/01/21 00:11:35;;;;;;;39.10;18.50;;;-1.00;99.90;;;;;;5050142;28;20072;-83
2023/01/21 00:14:01;;;;;;;33.43;17.10;;;-1.00;99.90;;;;;;5049877;28;20049;-83
2023/01/21 00:16:28;;;;;;;37.50;18.17;;;-1.00;99.90;;;;;;5033490;28;20047;-83
2023/01/21 00:18:55;;;;;;;39.70;19.40;;;-1.10;99.90;;;;;;5049745;28;20041;-83
2023/01/21 00:21:21;;;;;;;37.03;17.53;;;-1.10;99.90;;;;;;5049845;28;20048;-82
2023/01/21 00:23:46;;;;;;;37.07;17.83;;;-1.20;99.90;;;;;;5049993;28;20402;-82
2023/01/21 00:26:12;;;;;;;35.80;17.93;;;-1.30;99.90;;;;;;5033414;28;20090;-82
2023/01/21 00:28:40;;;;;;;36.13;18.23;;;-1.30;99.90;;;;;;5032954;28;20120;-82
2023/01/21 00:31:07;;;;;;;37.10;17.77;;;-1.30;99.90;;;;;;5050149;28;20406;-83
2023/01/21 00:33:33;;;;;;;33.73;16.90;;;-1.30;99.90;;;;;;5033511;28;20090;-82
2023/01/21 00:36:04;;;;;;;38.00;16.30;;;-1.30;99.90;;;;;;5049916;28;20044;-82
2023/01/21 00:38:30;;;;;;;37.83;17.33;;;-1.30;99.90;;;;;;5032976;28;20041;-82
2023/01/21 00:41:04;;;;;;;35.27;16.67;;;-1.30;99.90;;;;;;5049750;28;20040;-82
2023/01/21 00:43:30;;;;;;;40.27;17.93;;;-1.30;99.90;;;;;;5049157;28;20123;-82
2023/01/21 00:45:57;;;;;;;35.87;17.53;;;-1.30;99.90;;;;;;5048833;28;20248;-82
2023/01/21 00:48:22;;;;;;;36.30;17.50;;;-1.30;99.90;;;;;;5049937;28;20395;-82
2023/01/21 00:50:50;;;;;;;35.90;16.67;;;-1.30;99.90;;;;;;5049750;28;20037;-82
2023/01/21 00:53:18;;;;;;;38.87;17.97;;;-1.30;99.90;;;;;;5049776;28;20059;-83
2023/01/21 00:55:44;;;;;;;35.83;16.90;;;-1.40;99.90;;;;;;5049854;28;20102;-82
2023/01/21 00:58:09;;;;;;;38.60;17.87;;;-1.40;99.90;;;;;;5049764;28;20127;-82
2023/01/21 01:00:35;;;;;;;38.60;18.33;;;-1.40;99.90;;;;;;5049920;28;20043;-82
2023/01/21 01:03:00;;;;;;;35.43;17.10;;;-1.40;99.90;;;;;;5049614;28;20132;-83
2023/01/21 01:05:26;;;;;;;38.73;18.47;;;-1.40;99.90;;;;;;5049645;28;20068;-82
2023/01/21 01:07:51;;;;;;;39.30;18.03;;;-1.40;99.90;;;;;;5049752;28;20392;-82
2023/01/21 01:10:17;;;;;;;40.07;18.23;;;-1.40;99.90;;;;;;5049758;28;20052;-82
2023/01/21 01:12:43;;;;;;;40.27;18.33;;;-1.50;99.90;;;;;;5049828;28;20311;-83
2023/01/21 01:15:09;;;;;;;42.30;18.53;;;-1.50;99.90;;;;;;5049660;28;20049;-83
2023/01/21 01:17:36;;;;;;;38.83;17.50;;;-1.50;99.90;;;;;;5050505;28;20510;-83
2023/01/21 01:20:02;;;;;;;39.37;17.57;;;-1.50;99.90;;;;;;5052808;28;20087;-83
2023/01/21 01:22:27;;;;;;;37.90;17.50;;;-1.50;99.90;;;;;;5036507;28;20072;-83
2023/01/21 01:24:53;;;;;;;38.20;16.83;;;-1.60;99.90;;;;;;5053007;28;20716;-84
2023/01/21 01:27:19;;;;;;;38.40;16.50;;;-1.60;99.90;;;;;;5036422;28;20041;-83
2023/01/21 01:29:44;;;;;;;41.00;17.93;;;-1.70;99.90;;;;;;5051991;28;20126;-83
2023/01/21 01:32:10;;;;;;;41.17;19.13;;;-1.70;99.90;;;;;;5052562;28;20046;-83
2023/01/21 01:34:36;;;;;;;38.40;17.67;;;-1.70;99.90;;;;;;5053105;28;20106;-83
2023/01/21 01:37:02;;;;;;;40.83;17.57;;;-1.80;99.90;;;;;;5053156;28;20044;-83
2023/01/21 01:39:28;;;;;;;38.13;17.90;;;-1.70;99.90;;;;;;5052413;28;20114;-83
2023/01/21 01:41:53;;;;;;;40.30;17.97;;;-1.70;99.90;;;;;;5053032;28;20494;-82
2023/01/21 01:44:56;;;;;;;38.27;18.00;;;-1.70;99.90;;;;;;5052824;28;20123;-82
2023/01/21 01:47:28;;;;;;;35.07;16.00;;;-1.70;99.90;;;;;;5052540;28;20049;-82
2023/01/21 01:49:53;;;;;;;40.80;18.23;;;-1.80;99.90;;;;;;5052690;28;20052;-82
2023/01/21 01:52:20;;;;;;;39.73;18.10;;;-1.80;99.90;;;;;;5035990;28;20044;-82
2023/01/21 01:54:53;;;;;;;39.63;17.87;;;-1.10;99.90;;;;;;5039546;28;20379;-82
2023/01/21 01:57:22;;;;;;;39.70;17.57;;;-1.80;99.90;;;;;;5052467;28;20088;-82
2023/01/21 01:59:49;;;;;;;41.10;19.03;;;-1.60;99.90;;;;;;5035429;28;20044;-82
2023/01/21 02:02:17;;;;;;;37.90;17.80;;;-1.70;99.90;;;;;;5052235;28;20055;-82
2023/01/21 02:04:46;;;;;;;37.93;17.60;;;-1.80;99.90;;;;;;5035880;28;20037;-82
2023/01/21 02:07:14;;;;;;;38.47;17.63;;;-1.80;99.90;;;;;;5035703;28;20124;-82
2023/01/21 02:09:39;;;;;;;40.07;17.97;;;-1.90;99.90;;;;;;5051960;28;20036;-82
2023/01/21 02:12:06;;;;;;;43.43;17.47;;;-1.90;99.90;;;;;;5052068;28;20045;-82
2023/01/21 02:14:33;;;;;;;38.83;17.80;;;-1.90;99.90;;;;;;5052048;28;20032;-81
2023/01/21 02:17:22;;;;;;;39.50;18.37;;;-1.90;99.90;;;;;;5052232;28;20107;-82
2023/01/21 02:20:05;;;;;;;39.27;17.60;;;-1.90;99.90;;;;;;5051659;28;20099;-82
2023/01/21 02:22:34;;;;;;;42.03;18.13;;;-2.00;99.90;;;;;;5051866;28;20040;-82
2023/01/21 02:25:29;;;;;;;39.03;18.97;;;-2.00;99.90;;;;;;5035493;28;20132;-81
2023/01/21 02:28:25;;;;;;;40.63;18.13;;;-2.00;99.90;;;;;;5052021;28;20402;-81
2023/01/21 02:31:01;;;;;;;38.87;17.43;;;-2.10;99.90;;;;;;5051351;28;20499;-81
2023/01/21 02:33:33;;;;;;;46.00;19.87;;;-2.10;99.90;;;;;;5052054;28;20068;-81
2023/01/21 02:36:14;;;;;;;46.93;19.60;;;-2.10;99.90;;;;;;5052210;28;20399;-81
2023/01/21 02:38:44;;;;;;;41.47;18.40;;;-2.00;99.90;;;;;;5052049;28;20114;-81
2023/01/21 02:41:40;;;;;;;42.87;19.20;;;-2.00;99.90;;;;;;5051898;28;20044;-81
2023/01/21 02:44:13;;;;;;;40.50;18.23;;;-1.90;99.90;;;;;;5051676;28;20299;-81
2023/01/21 02:46:46;;;;;;;38.58;17.48;;;-1.90;99.90;;;;;;5051944;28;20471;-81
2023/01/21 02:49:26;;;;;;;44.80;18.75;;;-1.80;99.90;;;;;;5035069;28;20051;-81
2023/01/21 02:51:51;;;;;;;43.47;19.30;;;-1.80;99.90;;;;;;5035092;28;20118;-81
2023/01/21 02:54:39;;;;;;;43.63;20.10;;;-1.80;99.90;;;;;;5051734;28;20502;-81
2023/01/21 02:57:07;;;;;;;40.67;18.63;;;-1.80;99.90;;;;;;5051359;28;20049;-81
2023/01/21 02:59:36;;;;;;;43.27;19.43;;;-1.80;99.90;;;;;;5051224;28;20036;-81
2023/01/21 03:02:22;;;;;;;40.83;18.30;;;-1.80;99.90;;;;;;5051184;28;20033;-81
2023/01/21 03:05:07;;;;;;;40.30;19.07;;;-1.80;99.90;;;;;;5051863;28;20437;-81
2023/01/21 03:07:35;;;;;;;43.53;19.43;;;-1.70;99.90;;;;;;5051642;28;20045;-81
2023/01/21 03:10:12;;;;;;;43.17;18.90;;;-1.70;99.90;;;;;;5051636;28;20051;-81
2023/01/21 03:12:59;;;;;;;44.17;19.37;;;-1.70;99.90;;;;;;5034510;28;20203;-81
2023/01/21 03:18:30;;;;;;;39.20;18.57;;;-1.80;99.90;;;;;;5051008;28;20079;-81
2023/01/21 03:20:59;;;;;;;43.83;19.23;;;-1.80;99.90;;;;;;5051461;28;20694;-81
2023/01/21 03:23:37;;;;;;;43.00;18.77;;;-1.90;99.90;;;;;;5050873;28;20041;-81
2023/01/21 03:26:05;;;;;;;44.53;19.27;;;-2.00;99.90;;;;;;5050862;28;20032;-81
2023/01/21 03:28:35;;;;;;;41.43;19.13;;;-2.00;99.90;;;;;;5050806;28;20525;-81
2023/01/21 03:31:17;;;;;;;44.73;19.40;;;-2.00;99.90;;;;;;5050683;28;20056;-82
2023/01/21 03:33:47;;;;;;;43.40;19.30;;;-2.00;99.90;;;;;;5034163;28;20052;-82
2023/01/21 03:36:30;;;;;;;49.37;21.23;;;-2.00;99.90;;;;;;5051119;28;20451;-81
2023/01/21 03:38:58;;;;;;;43.85;20.20;;;-1.90;99.90;;;;;;5033854;28;20495;-81
2023/01/21 03:41:32;;;;;;;46.67;20.70;;;-1.90;99.90;;;;;;5049616;28;20051;-81
2023/01/21 03:43:58;;;;;;;44.20;21.83;;;-1.90;99.90;;;;;;5050805;28;20048;-80
2023/01/21 03:46:57;;;;;;;49.70;21.90;;;-1.90;99.90;;;;;;5050996;28;20411;-81
2023/01/21 03:49:31;;;;;;;49.37;22.37;;;-1.80;99.90;;;;;;5050978;28;20049;-81
2023/01/21 03:51:59;;;;;;;52.33;22.63;;;-1.80;99.90;;;;;;5051709;28;20048;-80
2023/01/21 03:54:25;;;;;;;53.80;22.57;;;-1.80;99.90;;;;;;5050995;28;20052;-80
2023/01/21 03:56:50;;;;;;;50.63;23.13;;;-1.70;99.90;;;;;;5050823;28;20049;-80
2023/01/21 03:59:16;;;;;;;45.70;22.30;;;-1.70;99.90;;;;;;5050332;28;20037;-80
2023/01/21 04:01:41;;;;;;;49.03;22.93;;;-1.60;99.90;;;;;;5050492;28;20449;-80
2023/01/21 04:04:08;;;;;;;50.73;23.80;;;-1.60;99.90;;;;;;5031345;28;20037;-80
2023/01/21 04:06:35;;;;;;;48.73;23.57;;;-1.60;99.90;;;;;;5030557;28;20544;-80
2023/01/21 04:09:10;;;;;;;53.70;23.10;;;-1.50;99.90;;;;;;5017356;28;20037;-80
2023/01/21 04:11:35;;;;;;;52.73;22.57;;;-1.50;99.90;;;;;;5050602;28;20087;-80
2023/01/21 04:14:01;;;;;;;54.07;24.07;;;-1.50;99.90;;;;;;5050262;28;20417;-80
2023/01/21 04:16:27;;;;;;;51.27;24.27;;;-1.50;99.90;;;;;;5033914;28;20098;-80
2023/01/21 04:18:55;;;;;;;53.23;24.13;;;-1.40;99.90;;;;;;5050177;28;20047;-80
2023/01/21 04:21:20;;;;;;;56.93;25.83;;;-1.30;99.90;;;;;;5050486;28;20043;-80
2023/01/21 04:23:46;;;;;;;47.33;22.87;;;-1.30;99.90;;;;;;5034008;28;20457;-80
2023/01/21 04:26:12;;;;;;;50.63;23.80;;;-1.30;99.90;;;;;;5050347;28;20053;-80
2023/01/21 04:28:37;;;;;;;52.00;23.10;;;-1.20;99.90;;;;;;5050390;28;20041;-80
2023/01/21 04:31:05;;;;;;;49.97;24.37;;;-1.20;99.90;;;;;;5050504;28;20033;-81
2023/01/21 04:33:34;;;;;;;54.17;24.67;;;-1.20;99.90;;;;;;5033833;28;20392;-80
2023/01/21 04:36:00;;;;;;;51.07;23.47;;;-1.20;99.90;;;;;;5050282;28;20044;-81
2023/01/21 04:38:26;;;;;;;52.47;23.13;;;-1.30;99.90;;;;;;5050040;28;20048;-81
2023/01/21 04:40:52;;;;;;;47.80;23.10;;;-1.20;99.90;;;;;;5050412;28;20044;-81
2023/01/21 04:43:18;;;;;;;49.80;22.80;;;-1.20;99.90;;;;;;5032696;28;20112;-80
2023/01/21 04:45:43;;;;;;;53.97;22.70;;;-1.20;99.90;;;;;;5043797;28;20060;-81
2023/01/21 04:48:09;;;;;;;47.70;22.23;;;-1.20;99.90;;;;;;5049732;28;20037;-81
2023/01/21 04:50:38;;;;;;;50.47;24.60;;;-1.20;99.90;;;;;;5033640;28;20438;-81
2023/01/21 04:53:03;;;;;;;50.67;22.90;;;-1.20;99.90;;;;;;5052145;28;20546;-81
2023/01/21 04:55:29;;;;;;;46.90;21.23;;;-1.20;99.90;;;;;;5053671;28;20125;-81
2023/01/21 04:57:54;;;;;;;52.40;22.50;;;-1.20;99.90;;;;;;5054021;28;20051;-81
2023/01/21 05:00:20;;;;;;;47.57;22.17;;;-1.20;99.90;;;;;;5053816;28;20124;-81
2023/01/21 05:02:46;;;;;;;49.20;22.13;;;-1.20;99.90;;;;;;5054153;28;20398;-81
2023/01/21 05:05:11;;;;;;;47.37;22.07;;;-1.10;99.90;;;;;;5055399;28;20120;-81
2023/01/21 05:07:37;;;;;;;47.40;22.97;;;-1.20;99.90;;;;;;5037417;28;20048;-81
2023/01/21 05:10:03;;;;;;;50.20;22.17;;;-1.10;99.90;;;;;;5053893;28;20036;-81
2023/01/21 05:12:28;;;;;;;51.87;23.43;;;-1.20;99.90;;;;;;5053106;28;20041;-81
2023/01/21 05:14:56;;;;;;;46.83;21.03;;;-1.20;99.90;;;;;;5053769;28;20063;-81
2023/01/21 05:17:22;;;;;;;45.60;21.90;;;-1.20;99.90;;;;;;5037454;28;20087;-81
2023/01/21 05:19:49;;;;;;;43.90;20.97;;;-1.10;99.90;;;;;;5054463;28;20048;-81
2023/01/21 05:22:15;;;;;;;44.43;21.70;;;-1.20;99.90;;;;;;5054439;28;20045;-80
2023/01/21 05:24:41;;;;;;;52.47;23.33;;;-1.20;99.90;;;;;;5054026;28;20043;-81
2023/01/21 05:27:07;;;;;;;48.20;22.30;;;-1.20;99.90;;;;;;5053933;28;20041;-81
2023/01/21 05:29:32;;;;;;;50.53;21.73;;;-1.10;99.90;;;;;;5053478;28;20048;-81
2023/01/21 05:31:58;;;;;;;52.57;23.80;;;-1.10;99.90;;;;;;5053434;28;20045;-81
2023/01/21 05:34:23;;;;;;;51.87;23.50;;;-1.10;99.90;;;;;;5053136;28;20076;-81
2023/01/21 05:36:49;;;;;;;47.07;21.40;;;-1.10;99.90;;;;;;5053387;28;20059;-80
2023/01/21 05:39:14;;;;;;;45.60;21.80;;;-1.10;99.90;;;;;;5053078;28;20056;-81
2023/01/21 05:41:40;;;;;;;46.80;23.20;;;-1.10;99.90;;;;;;5036604;28;20037;-80
2023/01/21 05:44:10;;;;;;;50.73;22.83;;;-1.10;99.90;;;;;;5053039;28;20047;-80
2023/01/21 05:46:35;;;;;;;50.17;23.30;;;-1.10;99.90;;;;;;5053272;28;20437;-80
2023/01/21 05:49:05;;;;;;;50.20;22.73;;;-1.20;99.90;;;;;;5036489;28;20102;-80
2023/01/21 05:51:30;;;;;;;46.97;22.13;;;-1.20;99.90;;;;;;5054276;28;20048;-80
2023/01/21 05:53:56;;;;;;;49.00;22.13;;;-1.20;99.90;;;;;;5052988;28;20064;-80
2023/01/21 05:56:21;;;;;;;44.57;22.00;;;-1.30;99.90;;;;;;5052754;28;20041;-80
2023/01/21 05:58:47;;;;;;;50.13;22.17;;;-1.30;99.90;;;;;;5052460;28;20045;-80
2023/01/21 06:01:12;;;;;;;45.47;21.63;;;-1.40;99.90;;;;;;5051748;28;20044;-80
2023/01/21 06:03:38;;;;;;;47.87;22.10;;;-1.40;99.90;;;;;;5051944;28;20040;-80
2023/01/21 06:06:04;;;;;;;45.57;21.57;;;-1.40;99.90;;;;;;5052622;28;20033;-80
2023/01/21 06:08:29;;;;;;;44.80;21.93;;;-1.40;99.90;;;;;;5036192;28;20123;-80
2023/01/21 06:10:55;;;;;;;45.30;21.77;;;-1.40;99.90;;;;;;5052974;28;20036;-80
2023/01/21 06:13:21;;;;;;;48.27;21.67;;;-1.40;99.90;;;;;;5052799;28;20182;-80
2023/01/21 06:15:46;;;;;;;46.60;22.57;;;-1.50;99.90;;;;;;5052493;28;20502;-80
2023/01/21 06:18:12;;;;;;;44.80;22.47;;;-1.50;99.90;;;;;;5052733;28;20056;-80
2023/01/21 06:20:37;;;;;;;46.53;21.53;;;-1.50;99.90;;;;;;5052899;28;20041;-80
2023/01/21 06:23:03;;;;;;;42.83;20.80;;;-1.50;99.90;;;;;;5052026;28;20103;-80
2023/01/21 06:25:29;;;;;;;45.57;21.50;;;-1.60;99.90;;;;;;5034152;28;20453;-80
2023/01/21 06:27:55;;;;;;;45.50;22.07;;;-1.60;99.90;;;;;;5052167;28;20048;-80
2023/01/21 06:30:23;;;;;;;45.10;21.10;;;-1.60;99.90;;;;;;5052385;28;20048;-80
2023/01/21 06:32:48;;;;;;;47.53;22.80;;;-1.70;99.90;;;;;;5052268;28;20047;-80
2023/01/21 06:35:14;;;;;;;46.13;23.43;;;-1.70;99.90;;;;;;5052312;28;20049;-80
2023/01/21 06:37:40;;;;;;;43.67;20.67;;;-1.70;99.90;;;;;;5052092;28;20506;-80
2023/01/21 06:40:07;;;;;;;50.20;22.20;;;-1.80;99.90;;;;;;5052352;28;20037;-80
2023/01/21 06:42:33;;;;;;;47.63;21.87;;;-1.80;99.90;;;;;;5052175;28;20159;-80
2023/01/21 06:45:01;;;;;;;47.20;20.80;;;-1.80;99.90;;;;;;5052185;28;20075;-80
2023/01/21 06:47:26;;;;;;;48.33;22.40;;;-1.80;99.90;;;;;;5053457;28;20033;-80
2023/01/21 06:49:52;;;;;;;43.17;20.93;;;-1.80;99.90;;;;;;5052493;28;20048;-80
2023/01/21 06:52:17;;;;;;;46.63;22.10;;;-1.80;99.90;;;;;;5051885;28;20082;-80
2023/01/21 06:54:43;;;;;;;45.27;20.80;;;-1.80;99.90;;;;;;5051976;28;20059;-80
2023/01/21 06:57:09;;;;;;;45.37;22.83;;;-1.80;99.90;;;;;;5051609;28;20045;-81
2023/01/21 06:59:35;;;;;;;44.40;21.10;;;-1.80;99.90;;;;;;5051702;28;20067;-80
2023/01/21 07:02:00;;;;;;;46.90;23.13;;;-1.20;99.90;;;;;;5052142;28;20045;-81
2023/01/21 07:04:26;;;;;;;49.00;22.33;;;-1.90;99.90;;;;;;5051882;28;20064;-81
2023/01/21 07:06:53;;;;;;;50.43;23.03;;;-1.90;99.90;;;;;;5035081;28;20041;-81
2023/01/21 07:09:19;;;;;;;45.77;22.30;;;-1.90;99.90;;;;;;5051411;28;20041;-81
2023/01/21 07:11:44;;;;;;;49.00;22.27;;;-1.90;99.90;;;;;;5051398;28;20406;-81
2023/01/21 07:14:10;;;;;;;47.90;23.50;;;-1.90;99.90;;;;;;5034745;28;20037;-81
2023/01/21 07:16:36;;;;;;;49.63;22.93;;;-2.00;99.90;;;;;;5051099;28;20462;-82
2023/01/21 07:19:02;;;;;;;47.87;22.93;;;-2.00;99.90;;;;;;5051006;28;20040;-81
2023/01/21 07:21:28;;;;;;;46.53;22.83;;;-2.10;99.90;;;;;;5034163;28;20418;-81
2023/01/21 07:23:54;;;;;;;48.87;23.13;;;-2.10;99.90;;;;;;5034524;28;20033;-81
2023/01/21 07:26:20;;;;;;;51.00;23.47;;;-2.10;99.90;;;;;;5051227;28;20040;-81
2023/01/21 07:28:51;;;;;;;51.70;24.50;;;-2.10;99.90;;;;;;5050759;28;20089;-81
2023/01/21 07:31:16;;;;;;;50.57;24.00;;;-2.20;99.90;;;;;;5034798;28;20604;-81
2023/01/21 07:33:47;;;;;;;50.67;24.00;;;-2.20;99.90;;;;;;5051195;28;20156;-81
2023/01/21 07:36:12;;;;;;;53.07;23.73;;;-2.20;99.90;;;;;;5034171;28;20120;-81
2023/01/21 07:38:38;;;;;;;47.77;23.30;;;-2.20;99.90;;;;;;5050600;28;20153;-81
2023/01/21 07:41:04;;;;;;;54.00;24.13;;;-2.20;99.90;;;;;;5050239;28;20099;-82
2023/01/21 07:43:29;;;;;;;49.90;22.87;;;-2.20;99.90;;;;;;5031927;28;20637;-82
2023/01/21 07:45:55;;;;;;;52.07;23.97;;;-2.20;99.90;;;;;;5049562;28;20065;-82
2023/01/21 07:48:21;;;;;;;53.80;24.13;;;-2.20;99.90;;;;;;5050017;28;20048;-82
2023/01/21 07:50:46;;;;;;;51.60;22.70;;;-2.30;99.90;;;;;;5050499;28;20045;-82
2023/01/21 07:53:12;;;;;;;55.77;23.83;;;-2.20;99.90;;;;;;5033681;28;20041;-82
2023/01/21 07:55:38;;;;;;;49.23;23.23;;;-2.30;99.90;;;;;;5049404;28;20033;-82
2023/01/21 07:58:03;;;;;;;56.07;23.20;;;-2.30;99.90;;;;;;5049088;28;20094;-82
2023/01/21 08:00:29;;;;;;;59.37;25.13;;;-2.30;99.90;;;;;;5033701;28;20095;-83
2023/01/21 08:02:55;;;;;;;48.30;24.33;;;-2.30;99.90;;;;;;5033673;28;20041;-82
2023/01/21 08:05:25;;;;;;;48.03;21.80;;;-2.30;99.90;;;;;;5050264;28;20079;-82
2023/01/21 08:07:51;;;;;;;51.97;23.47;;;-2.30;99.90;;;;;;5050053;28;20040;-83
2023/01/21 08:10:17;;;;;;;55.87;23.73;;;-2.40;99.90;;;;;;5050273;28;20515;-82
2023/01/21 08:12:43;;;;;;;55.23;24.83;;;-2.30;99.90;;;;;;5033410;28;20045;-83
2023/01/21 08:15:10;;;;;;;46.87;22.70;;;-2.40;99.90;;;;;;5033212;28;20037;-83
2023/01/21 08:17:41;;;;;;;46.20;22.17;;;-2.40;99.90;;;;;;5048863;28;20037;-83
2023/01/21 08:20:09;;;;;;;48.37;23.27;;;-2.40;99.90;;;;;;5049875;28;20045;-83
2023/01/21 08:22:38;;;;;;;51.83;24.77;;;-2.50;99.90;;;;;;5049485;28;20048;-83
2023/01/21 08:25:04;;;;;;;53.17;26.77;;;-2.40;99.90;;;;;;5033508;28;20407;-83
2023/01/21 08:27:31;;;;;;;50.67;25.07;;;-2.40;99.90;;;;;;5036288;28;20406;-83
2023/01/21 08:29:56;;;;;;;65.57;33.60;;;-2.40;99.90;;;;;;5056427;28;20040;-83
2023/01/21 08:32:23;;;;;;;59.60;28.37;;;-2.40;99.90;;;;;;5056487;28;20043;-82
2023/01/21 08:34:51;;;;;;;58.20;26.57;;;-2.40;99.90;;;;;;5056612;28;20036;-83
2023/01/21 08:37:16;;;;;;;53.77;25.70;;;-2.30;99.90;;;;;;5056972;28;20037;-83
2023/01/21 08:39:42;;;;;;;54.80;25.03;;;-2.30;99.90;;;;;;5056067;28;20045;-83
2023/01/21 08:42:07;;;;;;;51.93;26.03;;;-2.30;99.90;;;;;;5056526;28;20124;-83
2023/01/21 08:44:34;;;;;;;52.10;25.63;;;-2.20;99.90;;;;;;5056715;28;20426;-83
2023/01/21 08:47:00;;;;;;;58.63;27.67;;;-2.20;99.90;;;;;;5056463;28;20037;-83
2023/01/21 08:49:25;;;;;;;56.17;25.77;;;-2.20;99.90;;;;;;5056381;28;20120;-83
2023/01/21 08:51:51;;;;;;;63.20;26.80;;;-2.20;99.90;;;;;;5056430;28;20040;-83
2023/01/21 08:54:16;;;;;;;59.57;25.93;;;-2.10;99.90;;;;;;5056347;28;20044;-83
2023/01/21 08:56:42;;;;;;;54.57;24.67;;;-2.10;99.90;;;;;;5039167;28;20040;-83
2023/01/21 08:59:08;;;;;;;56.30;25.90;;;-2.00;99.90;;;;;;5035683;28;20041;-84
2023/01/21 09:01:35;;;;;;;57.20;25.30;;;-2.00;99.90;;;;;;5035704;28;20033;-83
2023/01/21 09:04:00;;;;;;;56.33;26.70;;;-1.90;99.90;;;;;;5035918;28;20044;-83
2023/01/21 09:06:28;;;;;;;57.60;24.93;;;-1.90;99.90;;;;;;5036352;28;20487;-83
2023/01/21 09:08:54;;;;;;;57.57;27.20;;;-1.90;99.90;;;;;;5035768;28;20094;-84
2023/01/21 09:11:20;;;;;;;57.97;26.07;;;-1.90;99.90;;;;;;5043704;28;20045;-83
2023/01/21 09:13:47;;;;;;;57.87;26.57;;;-1.90;99.90;;;;;;5056187;28;20055;-83
2023/01/21 09:16:19;;;;;;;59.37;28.57;;;-1.90;99.90;;;;;;5055566;28;20037;-83
2023/01/21 09:18:46;;;;;;;56.43;27.83;;;-1.80;99.90;;;;;;5056210;28;20049;-83
2023/01/21 09:21:12;;;;;;;57.03;26.40;;;-1.70;99.90;;;;;;5039346;28;20501;-83
2023/01/21 09:23:39;;;;;;;61.27;27.87;;;-1.70;99.90;;;;;;5058773;28;20064;-83
2023/01/21 09:26:23;;;;;;;57.60;28.77;;;-1.70;99.90;;;;;;5039308;28;20033;-83
2023/01/21 09:28:57;;;;;;;66.70;32.83;;;-1.70;99.90;;;;;;5056099;28;20433;-83
2023/01/21 09:31:24;;;;;;;64.53;31.37;;;-1.70;99.90;;;;;;5056192;28;20060;-83
2023/01/21 09:33:53;;;;;;;62.83;33.20;;;-1.60;99.90;;;;;;5058325;28;20064;-82
2023/01/21 09:36:21;;;;;;;59.77;30.57;;;-1.60;99.90;;;;;;5060837;28;20095;-83
2023/01/21 09:38:48;;;;;;;69.03;36.63;;;-1.50;99.90;;;;;;5036667;28;20068;-83
2023/01/21 09:41:41;;;;;;;65.57;31.47;;;-1.40;99.90;;;;;;5052438;28;20044;-83
2023/01/21 09:44:25;;;;;;;61.93;28.60;;;-1.30;99.90;;;;;;5052155;28;20087;-82
2023/01/21 09:47:03;;;;;;;63.25;30.60;;;-1.20;99.90;;;;;;5036038;28;20426;-82
2023/01/21 09:49:42;;;;;;;59.87;30.63;;;-1.10;99.90;;;;;;5035777;28;20398;-82
2023/01/21 09:52:26;;;;;;;61.40;29.00;;;-1.10;99.90;;;;;;5052875;28;20045;-82
2023/01/21 09:54:53;;;;;;;62.30;27.85;;;-1.00;99.90;;;;;;5052509;28;20457;-82
2023/01/21 09:57:39;;;;;;;57.50;27.27;;;-0.90;99.90;;;;;;5035613;28;20037;-82
2023/01/21 10:00:26;;;;;;;60.77;27.47;;;-0.90;99.90;;;;;;5052232;28;20042;-82
2023/01/21 10:03:07;;;;;;;59.53;27.17;;;-0.80;99.90;;;;;;5030931;28;20041;-81
2023/01/21 10:05:36;;;;;;;60.30;27.10;;;-0.70;99.90;;;;;;5041444;28;20398;-80
2023/01/21 10:08:16;;;;;;;56.33;25.83;;;-0.60;99.90;;;;;;5051021;28;20041;-81
2023/01/21 10:10:51;;;;;;;54.37;26.40;;;-0.50;99.90;;;;;;5030765;28;20056;-81
2023/01/21 10:13:36;;;;;;;49.73;24.83;;;-0.40;99.90;;;;;;5048966;28;20037;-81
2023/01/21 10:16:28;;;;;;;63.80;28.07;;;-0.20;99.90;;;;;;5034258;28;20029;-80
2023/01/21 10:18:56;;;;;;;58.03;26.47;;;0.00;99.90;;;;;;5031048;28;20057;-81
2023/01/21 10:21:35;;;;;;;60.70;28.43;;;0.20;99.90;;;;;;5039279;28;20041;-81
2023/01/21 10:24:21;;;;;;;62.20;26.50;;;0.30;99.90;;;;;;5051003;28;20104;-82
2023/01/21 10:26:49;;;;;;;58.30;25.60;;;0.40;99.90;;;;;;5039459;28;20033;-81
2023/01/21 10:29:22;;;;;;;50.77;24.33;;;0.50;99.90;;;;;;5030550;28;20135;-81
2023/01/21 10:31:58;;;;;;;51.30;24.30;;;0.50;99.90;;;;;;5031490;28;20042;-80
2023/01/21 10:34:27;;;;;;;46.73;22.67;;;0.60;99.90;;;;;;5051579;28;20108;-79
2023/01/21 10:36:58;;;;;;;48.70;23.07;;;0.70;99.90;;;;;;5052171;28;20045;-80
2023/01/21 10:39:44;;;;;;;46.77;23.43;;;0.70;99.90;;;;;;5051960;28;20090;-78
2023/01/21 10:42:56;;;;;;;46.60;23.50;;;0.80;99.90;;;;;;5051094;28;20055;-78
2023/01/21 10:45:36;;;;;;;48.87;23.53;;;0.90;99.90;;;;;;5049171;28;20048;-77
2023/01/21 10:48:20;;;;;;;46.07;22.03;;;1.00;99.90;;;;;;5051600;28;20037;-78
2023/01/21 10:50:56;;;;;;;;;;;1.10;99.90;;;;;;5052146;28;20092;-78
2023/01/21 10:53:36;;;;;;;40.77;20.10;;;1.30;99.90;;;;;;5051966;28;19921;-77
2023/01/21 10:56:21;;;;;;;44.17;21.90;;;1.40;99.90;;;;;;5052174;28;20048;-78
2023/01/21 10:58:55;;;;;;;36.00;19.50;;;1.50;99.90;;;;;;5050862;28;20041;-81
2023/01/21 11:01:22;;;;;;;41.28;20.67;;;1.70;99.90;;;;;;5050502;28;20033;-82
2023/01/21 11:03:52;;;;;;;37.87;20.93;;;1.80;99.90;;;;;;5050607;28;20209;-83
2023/01/21 11:06:19;;;;;;;38.47;20.60;;;1.90;99.90;;;;;;5051258;28;20166;-84
2023/01/21 11:08:48;;;;;;;37.40;19.57;;;2.00;99.90;;;;;;5050985;28;20099;-81
2023/01/21 11:11:23;;;;;;;37.27;20.20;;;2.10;99.90;;;;;;5052239;28;20396;-81
2023/01/21 11:13:48;;;;;;;32.50;18.00;;;2.20;99.90;;;;;;5052343;28;20045;-81
2023/01/21 11:16:35;;;;;;;33.87;18.07;;;2.30;99.90;;;;;;5052664;28;20048;-81
2023/01/21 11:19:04;;;;;;;33.13;18.63;;;2.40;99.90;;;;;;5052641;28;20041;-82
2023/01/21 11:21:30;;;;;;;33.73;17.53;;;2.50;99.90;;;;;;5050695;28;20392;-82
2023/01/21 11:24:02;;;;;;;35.30;17.53;;;2.50;99.90;;;;;;5051678;28;20125;-82
2023/01/21 11:26:31;;;;;;;30.03;17.13;;;2.60;99.90;;;;;;5051185;28;20082;-83
2023/01/21 11:29:14;;;;;;;32.37;16.03;;;2.70;99.90;;;;;;5050861;28;20055;-83
2023/01/21 11:31:42;;;;;;;32.20;17.37;;;2.90;99.90;;;;;;5034354;28;20453;-84
2023/01/21 11:34:20;;;;;;;27.60;16.33;;;2.90;99.90;;;;;;5050599;28;20111;-84
2023/01/21 11:37:03;;;;;;;29.90;16.75;;;2.90;99.90;;;;;;5034222;28;20045;-83
2023/01/21 11:39:32;;;;;;;30.42;16.80;;;3.00;99.90;;;;;;5032873;28;20210;-83
2023/01/21 11:42:05;;;;;;;31.30;16.00;;;3.00;99.90;;;;;;5049777;28;20052;-83
2023/01/21 11:44:32;;;;;;;27.98;15.43;;;3.10;99.90;;;;;;5034239;28;20043;-83
2023/01/21 11:46:58;;;;;;;28.95;16.77;;;3.20;99.90;;;;;;5050454;28;20503;-84
2023/01/21 11:49:30;;;;;;;26.83;15.60;;;3.20;99.90;;;;;;5050181;28;20133;-84
2023/01/21 11:52:13;;;;;;;24.70;14.70;;;3.30;99.90;;;;;;5050358;28;20048;-84
2023/01/21 11:54:41;;;;;;;23.70;14.05;;;3.30;99.90;;;;;;5030696;28;20037;-83
2023/01/21 11:57:20;;;;;;;23.50;13.50;;;3.40;99.90;;;;;;5033482;28;20036;-84
2023/01/21 11:59:48;;;;;;;22.98;13.70;;;3.40;99.90;;;;;;5047392;28;20072;-84
2023/01/21 12:02:24;;;;;;;21.85;13.20;;;3.40;99.90;;;;;;5036971;28;20327;-85
2023/01/21 12:05:03;;;;;;;21.13;13.07;;;3.50;99.90;;;;;;5029972;28;20044;-85
2023/01/21 12:07:36;;;;;;;19.33;11.30;;;3.60;99.90;;;;;;5039245;28;20044;-85
2023/01/21 12:10:11;;;;;;;20.65;12.05;;;3.70;99.90;;;;;;5033690;28;20044;-85
2023/01/21 12:12:54;;;;;;;21.02;11.68;;;3.70;99.90;;;;;;5013780;28;20141;-85
2023/01/21 12:15:32;;;;;;;19.02;10.98;;;3.70;99.90;;;;;;5042458;28;20041;-85
2023/01/21 12:18:19;;;;;;;18.67;11.35;;;3.80;99.90;;;;;;5049737;28;20124;-85
2023/01/21 12:21:15;;;;;;;16.63;10.10;;;3.80;99.90;;;;;;5033697;28;20056;-86
2023/01/21 12:24:03;;;;;;;15.32;9.65;;;3.80;99.90;;;;;;5050074;28;20052;-85
2023/01/21 12:26:36;;;;;;;16.27;10.18;;;3.90;99.90;;;;;;5050015;28;20159;-85
2023/01/21 12:29:17;;;;;;;;;;;4.00;99.90;;;;;;5035116;28;20139;-85
2023/01/21 12:32:00;;;;;;;15.15;8.30;;;4.10;99.90;;;;;;5034216;28;19920;-86
2023/01/21 12:34:42;;;;;;;13.00;8.10;;;4.20;99.90;;;;;;5033491;28;20037;-86
2023/01/21 12:37:19;;;;;;;15.60;8.88;;;4.20;99.90;;;;;;5049834;28;20087;-86
2023/01/21 12:39:47;;;;;;;13.25;8.55;;;4.30;99.90;;;;;;5032650;28;20525;-85
2023/01/21 12:42:32;;;;;;;15.20;8.93;;;4.40;99.90;;;;;;5050670;28;20100;-86
2023/01/21 12:45:01;;;;;;;12.55;8.00;;;4.50;99.90;;;;;;5050083;28;20048;-86
2023/01/21 12:47:43;;;;;;;12.40;7.65;;;4.60;99.90;;;;;;5033184;28;20044;-87
2023/01/21 12:50:19;;;;;;;12.15;8.00;;;4.70;99.90;;;;;;5048020;28;20063;-85